»·PEaware :: SWA2190 KABQ-KLAS

SWA2190 :: KABQ-KLAS

FLIGHT INFORMATION

Flight Status: Arrived
Operator:
Southwest Airlines
More flights by this operator :: More flights under this callsign
Pilot: Drew L. (13237)
Aircraft: BOEING 737-800
(B738)
More flights by this aircraft type
Origin: KABQ Albuquerque Intl Sunport
United States
Destination: KLAS McCarran Intl
United States
More flights between these airports :: More routes between these airports
Route: +ADYOS3 GUP J72 PGS TYSSN5
File this flight plan on PilotEdge
Remarks: PBN / A1B1C1D1S1S2 NAV / RNVD1E2A1 REG / N806SB EET / KZLA0040 RMK / SIMBRIEF
Altitude:
(Current/Filed)
36,000ft
Speed:
(Current/Filed)
449kts
Departed: 01-Oct-18 06:02 PM
Arrived: 01-Oct-18 07:13 PM
Distance/Time
Traveled:
421nm/1:11
Distance/Time
To Go:
Arrived

Flight Plot

Page will automatically refresh every two minutes.

Flight plan parsing failed; only flown route is shown


Map Options




Map Legend


Flown Route
Filed Route
Departure Airport
Arrival Airport
Navaid (VOR, NDB)
Fix

Horizontal Profiles

Position Reports

Time Latitude Longitude Heading Altitude Ground
Speed
01-Oct-18 17:33 35.046869 -106.615388 11 5323ft 0kts
01-Oct-18 17:34 35.046869 -106.615388 11 5323ft 0kts
01-Oct-18 17:35 35.046869 -106.615388 11 5323ft 0kts
01-Oct-18 17:36 35.046869 -106.615388 11 5323ft 0kts
01-Oct-18 17:37 35.046869 -106.615388 11 5323ft 0kts
01-Oct-18 17:38 35.046869 -106.615388 11 5323ft 0kts
01-Oct-18 17:39 35.046869 -106.615388 11 5323ft 0kts
01-Oct-18 17:40 35.046869 -106.615388 11 5323ft 0kts
01-Oct-18 17:41 35.046869 -106.615388 11 5323ft 0kts
01-Oct-18 17:42 35.046869 -106.615388 11 5323ft 0kts
01-Oct-18 17:43 35.046869 -106.615388 11 5323ft 0kts
01-Oct-18 17:44 35.046869 -106.615388 11 5323ft 0kts
01-Oct-18 17:45 35.046869 -106.615388 11 5323ft 0kts
01-Oct-18 17:46 35.046869 -106.615388 11 5323ft 0kts
01-Oct-18 17:47 35.046869 -106.615388 11 5323ft 0kts
01-Oct-18 17:48 35.046869 -106.615388 11 5323ft 0kts
01-Oct-18 17:49 35.046869 -106.615388 11 5323ft 0kts
01-Oct-18 17:50 35.046869 -106.615388 11 5323ft 0kts
01-Oct-18 17:51 35.046812 -106.615402 11 5323ft 2kts
01-Oct-18 17:52 35.046276 -106.615544 25 5323ft 2kts
01-Oct-18 17:53 35.046048 -106.616030 90 5323ft 1kts
01-Oct-18 17:54 35.046048 -106.616045 89 5322ft 0kts
01-Oct-18 17:55 35.046048 -106.616045 89 5322ft 0kts
01-Oct-18 17:56 35.046046 -106.615955 92 5323ft 4kts
01-Oct-18 17:57 35.045815 -106.612883 89 5323ft 18kts
01-Oct-18 17:58 35.045703 -106.602491 90 5327ft 33kts
01-Oct-18 17:59 35.045809 -106.591680 90 5340ft 38kts
01-Oct-18 18:00 35.045763 -106.578565 89 5361ft 33kts
01-Oct-18 18:01 35.045247 -106.575748 160 5365ft 0kts
01-Oct-18 18:02 35.045247 -106.575748 160 5365ft 0kts
01-Oct-18 18:03 35.044089 -106.575849 247 5365ft 8kts
01-Oct-18 18:04 35.044350 -106.606672 267 5455ft 170kts
01-Oct-18 18:05 35.045305 -106.661896 265 7401ft 164kts
01-Oct-18 18:06 35.044596 -106.725722 265 8512ft 219kts
01-Oct-18 18:07 35.043798 -106.813462 266 9683ft 285kts
01-Oct-18 18:08 35.047454 -106.916241 274 11376ft 324kts
01-Oct-18 18:09 35.082140 -107.021320 291 13769ft 342kts
01-Oct-18 18:10 35.121057 -107.129101 290 16396ft 353kts
01-Oct-18 18:11 35.160691 -107.239846 289 18869ft 363kts
01-Oct-18 18:12 35.183063 -107.359736 276 21219ft 365kts
01-Oct-18 18:13 35.202700 -107.482578 277 23358ft 373kts
01-Oct-18 18:14 35.222741 -107.607656 277 25292ft 380kts
01-Oct-18 18:15 35.243068 -107.735443 276 27076ft 386kts
01-Oct-18 18:16 35.263539 -107.865087 276 28685ft 393kts
01-Oct-18 18:17 35.284216 -107.996848 276 30374ft 393kts
01-Oct-18 18:18 35.304452 -108.126490 276 32196ft 385kts
01-Oct-18 18:19 35.324215 -108.254017 277 33844ft 378kts
01-Oct-18 18:20 35.344100 -108.379186 282 35186ft 376kts
01-Oct-18 18:21 35.376774 -108.500851 284 36289ft 377kts
01-Oct-18 18:22 35.410659 -108.627190 284 36295ft 405kts
01-Oct-18 18:23 35.439684 -108.736117 283 36297ft 417kts
01-Oct-18 18:24 35.476747 -108.894201 272 36306ft 409kts
01-Oct-18 18:25 35.482315 -109.010399 269 36293ft 410kts
01-Oct-18 18:26 35.488297 -109.150198 269 36298ft 413kts
01-Oct-18 18:27 35.494522 -109.291725 269 36299ft 416kts
01-Oct-18 18:28 35.500899 -109.432912 269 36298ft 414kts
01-Oct-18 18:29 35.507436 -109.574136 269 36298ft 415kts
01-Oct-18 18:30 35.513603 -109.704705 269 36303ft 415kts
01-Oct-18 18:31 35.518868 -109.813979 269 36302ft 415kts
01-Oct-18 18:32 35.525589 -109.950520 269 36297ft 416kts
01-Oct-18 18:33 35.532557 -110.091921 268 36220ft 415kts
01-Oct-18 18:34 35.536856 -110.232999 268 36172ft 414kts
01-Oct-18 18:35 35.541256 -110.373881 268 36171ft 415kts
01-Oct-18 18:36 35.545841 -110.515501 268 36170ft 415kts
01-Oct-18 18:37 35.550566 -110.656500 268 36170ft 415kts
01-Oct-18 18:38 35.555384 -110.796222 268 36175ft 415kts
01-Oct-18 18:39 35.560417 -110.936770 268 36175ft 415kts
01-Oct-18 18:40 35.565654 -111.078671 268 36173ft 420kts
01-Oct-18 18:41 35.571069 -111.221070 267 36202ft 421kts
01-Oct-18 18:42 35.576564 -111.361495 268 36256ft 421kts
01-Oct-18 18:43 35.582322 -111.504867 268 36262ft 420kts
01-Oct-18 18:44 35.585046 -111.647452 266 36257ft 420kts
01-Oct-18 18:45 35.587747 -111.788048 266 36240ft 419kts
01-Oct-18 18:46 35.591002 -111.929550 267 36229ft 421kts
01-Oct-18 18:47 35.595347 -112.072071 267 36227ft 420kts
01-Oct-18 18:48 35.599632 -112.215412 267 36229ft 421kts
01-Oct-18 18:49 35.604077 -112.358804 267 36227ft 420kts
01-Oct-18 18:50 35.606777 -112.502326 266 36226ft 420kts
01-Oct-18 18:51 35.608741 -112.644726 266 36227ft 420kts
01-Oct-18 18:52 35.610785 -112.784330 266 35546ft 427kts
01-Oct-18 18:53 35.613103 -112.927164 265 33469ft 419kts
01-Oct-18 18:54 35.615569 -113.073170 265 31407ft 437kts
01-Oct-18 18:55 35.618363 -113.223703 266 29336ft 446kts
01-Oct-18 18:56 35.621377 -113.377805 267 27261ft 456kts
01-Oct-18 18:57 35.624666 -113.534646 268 25187ft 465kts
01-Oct-18 18:58 35.645491 -113.691098 276 23592ft 480kts
01-Oct-18 18:59 35.667488 -113.844430 276 20948ft 438kts
01-Oct-18 19:00 35.687399 -113.985529 276 18349ft 410kts
01-Oct-18 19:01 35.706166 -114.119968 277 16048ft 389kts
01-Oct-18 19:02 35.724044 -114.249334 277 14058ft 380kts
01-Oct-18 19:03 35.757564 -114.368199 313 12078ft 372kts
01-Oct-18 19:04 35.845110 -114.431390 339 11883ft 372kts
01-Oct-18 19:05 35.935617 -114.473830 339 11108ft 332kts
01-Oct-18 19:06 36.015256 -114.520866 315 9899ft 311kts
01-Oct-18 19:07 36.052341 -114.609227 281 8683ft 278kts
01-Oct-18 19:08 36.068079 -114.698246 279 7879ft 248kts
01-Oct-18 19:09 36.073968 -114.780612 266 7646ft 239kts
01-Oct-18 19:10 36.073592 -114.856616 266 6403ft 212kts
01-Oct-18 19:11 36.073726 -114.929401 267 5056ft 210kts
01-Oct-18 19:12 36.073817 -114.999085 267 3744ft 183kts
01-Oct-18 19:13 36.073805 -115.058326 265 3098ft 166kts
01-Oct-18 19:14 36.073648 -115.114626 266 2347ft 160kts
01-Oct-18 19:15 36.073807 -115.148051 283 2119ft 22kts
01-Oct-18 19:16 36.074872 -115.150848 303 2119ft 0kts
01-Oct-18 19:17 36.078047 -115.152074 73 2119ft 15kts
01-Oct-18 19:18 36.081727 -115.150339 47 2119ft 19kts

Navigation Log

Ident Type
Flight plan parsing failed, navigation log unavailable